YBBN/BNE METAR and TAF weather

Enter ICAO airport designator
Station Type Date Time Source
YBBN METAR 2020/04/07 16:00 UTC NOAA

YBBN 071600Z 20003KT 4000 SHRA FEW018 SCT026 BKN040 19/18 Q1016


Station Type Date Time Source
YBBN Decoded METAR 2020/04/07 16:00 UTC NOAA

Brisbane Airport M. O, Australia (YBBN) 27-23S 153-06E 5M
Apr 07, 2020 - 12:00 PM EDT / 2020.04.07 1600 UTC
Wind: from the SSW (200 degrees) at 3 MPH (3 KT):0
Visibility: 2 mile(s):0
Sky conditions: mostly cloudy
Weather: rain showers
Temperature: 66 F (19 C)
Dew Point: 64 F (18 C)
Relative Humidity: 93%
Pressure (altimeter): 30.00 in. Hg (1016 hPa)
ob: YBBN 071600Z 20003KT 4000 SHRA FEW018 SCT026 BKN040 19/18 Q1016
cycle: 16

Station Type Date Time Source
YBBN TAF 2020/04/07 12:41 UTC NOAA

TAF YBBN 071136Z 0712/0818 20008KT 9999 -SHRA SCT025 BKN050
FM080000 13013KT 9999 -SHRA SCT035
FM080900 20008KT 9999 NSW FEW025 INTER 0712/0802 3000 SHRA BKN014

Example: see airport list